Calypso — IYQT — position and weather

sailwx.info

Track history (hours):
 
Tides and Currents Weather Stations Pressure Air Temp Water Temp Dewpoint Dewpoint Depression Visibility Wind Speed Wind Dir Waves Ship Positions

Calypso

Last reported at 2015-Aug-29 14:33 UTC. Time now 2015-Aug-29 14:42 UTC.
Position N 37°58' E 012°09'.

Length 31 m; draft 4.2 m.

MMSI: 247143200.

Date/timePositionNaut miles runAvg speedWind from/ knotsBaromVisibWave heightAir tempDewpointWater temp
2015-Aug-29 14:33N 37°58' E 012°09'1717.4
2015-Aug-29 13:34N 38°01' E 012°31'0 0.1
2015-Aug-29 12:34N 38°01' E 012°31'0 0.0
2015-Aug-29 11:34N 38°01' E 012°31'8 8.1
2015-Aug-29 10:34N 37°59' E 012°21'8 8.0
2015-Aug-29 09:33N 38°01' E 012°31'8 8.2
2015-Aug-29 08:34N 37°59' E 012°21'5 4.6
2015-Aug-29 07:33N 37°59' E 012°15'1312.7
2015-Aug-29 06:33N 38°01' E 012°31'9 8.9
2015-Aug-29 05:34N 37°58' E 012°20'9 8.8
2015-Aug-29 04:33N 38°01' E 012°31'0 0.0
2015-Aug-28 19:20N 38°01' E 012°31'810.7
2015-Aug-28 18:33N 37°59' E 012°20'4 3.9
2015-Aug-28 17:33N 37°59' E 012°25'5 4.6
2015-Aug-28 16:34N 38°01' E 012°31'9 9.3
2015-Aug-28 15:33N 37°57' E 012°20'5 5.4
2015-Aug-28 14:34N 37°58' E 012°13'1414.4
2015-Aug-28 13:33N 38°01' E 012°31'0 0.1
2015-Aug-28 12:33N 38°01' E 012°31'0 0.0
2015-Aug-28 11:33N 38°01' E 012°31'5 4.7
2015-Aug-28 10:33N 37°59' E 012°26'5 4.6
2015-Aug-28 09:33N 38°01' E 012°31'8 8.4
2015-Aug-28 08:34N 37°59' E 012°20'4 4.3
2015-Aug-28 07:33N 37°58' E 012°15'1312.6
2015-Aug-28 06:33N 38°01' E 012°31'8 8.2
2015-Aug-28 05:34N 37°59' E 012°21'8 8.2
2015-Aug-28 04:33N 38°01' E 012°31'0 0.0
2015-Aug-27 19:21N 38°01' E 012°31'810.4
2015-Aug-27 18:33N 37°59' E 012°21'4 4.4
2015-Aug-27 17:34N 37°59' E 012°26'4 3.9
2015-Aug-27 16:33N 38°01' E 012°30'10 9.7
2015-Aug-27 15:34N 37°56' E 012°19'6 6.2
2015-Aug-27 14:33N 37°58' E 012°12'1515.3
2015-Aug-27 13:33N 38°01' E 012°31'0 0.0
2015-Aug-27 12:33N 38°01' E 012°31'0 0.0
2015-Aug-27 11:33N 38°01' E 012°31'4 4.3
2015-Aug-27 10:33N 37°59' E 012°26'4 4.2
2015-Aug-27 09:33N 38°01' E 012°31'8 8.2
2015-Aug-27 08:33N 37°59' E 012°21'5 5.0
2015-Aug-27 07:33N 37°59' E 012°14'1313.0
2015-Aug-27 06:34N 38°01' E 012°30'8 8.4
2015-Aug-27 05:34N 37°58' E 012°20'9 8.5
2015-Aug-27 04:33N 38°01' E 012°31'0 0.0
2015-Aug-26 19:21N 38°01' E 012°31'810.7
2015-Aug-26 18:33N 37°59' E 012°20'2 2.2
2015-Aug-26 17:34N 37°57' E 012°23'7 7.3
2015-Aug-26 16:33N 38°01' E 012°31'8 8.2
2015-Aug-26 15:33N 37°59' E 012°21'4 3.7
2015-Aug-26 14:33N 37°58' E 012°16'1211.8
2015-Aug-26 13:33N 38°01' E 012°31'0 0.0
2015-Aug-26 12:34N 38°01' E 012°31'0 0.0
2015-Aug-26 11:33N 38°01' E 012°31'8 7.6
2015-Aug-26 10:33N 37°59' E 012°21'8 7.6
2015-Aug-26 09:34N 38°01' E 012°31'8 8.3
2015-Aug-26 08:34N 37°59' E 012°20'5 5.1
2015-Aug-26 07:33N 37°59' E 012°14'1313.3
2015-Aug-26 06:33N 38°01' E 012°31'9 9.2
2015-Aug-26 05:33N 37°57' E 012°20'9 9.2
2015-Aug-26 04:33N 38°01' E 012°31'0 0.0
2015-Aug-25 19:21N 38°01' E 012°31'810.3
2015-Aug-25 18:33N 37°59' E 012°21'3 3.0
2015-Aug-25 17:34N 37°58' E 012°24'6 6.3
2015-Aug-25 16:34N 38°01' E 012°31'8 8.2
2015-Aug-25 15:33N 37°59' E 012°20'5 5.5
2015-Aug-25 14:33N 37°58' E 012°14'1413.7
2015-Aug-25 13:33N 38°01' E 012°31'0 0.0
2015-Aug-25 12:33N 38°01' E 012°31'0 0.0
2015-Aug-25 11:33N 38°01' E 012°31'5 5.3
2015-Aug-25 10:33N 37°58' E 012°25'5 5.3
2015-Aug-25 09:34N 38°01' E 012°31'8 8.2
2015-Aug-25 08:33N 37°59' E 012°21'6 5.9
2015-Aug-25 07:33N 37°59' E 012°13'1413.9
2015-Aug-25 06:34N 38°01' E 012°31'9 8.8
2015-Aug-25 05:33N 37°58' E 012°20'9 8.9
2015-Aug-25 04:33N 38°01' E 012°31'0 0.0
2015-Aug-24 19:21N 38°01' E 012°31'810.4
2015-Aug-24 18:33N 37°59' E 012°20'3 3.2
2015-Aug-24 17:33N 37°56' E 012°19'10 9.5
2015-Aug-24 16:33N 38°01' E 012°30'1514.9
2015-Aug-24 15:33N 38°00' E 012°11'8 7.7
2015-Aug-24 14:34N 37°56' E 012°20'1010.0
2015-Aug-24 13:33N 38°01' E 012°31'0 0.0
2015-Aug-24 12:33N 38°01' E 012°31'0 0.0
2015-Aug-24 11:33N 38°01' E 012°31'8 8.2
2015-Aug-24 10:33N 37°59' E 012°21'8 8.2
2015-Aug-24 09:33N 38°01' E 012°31'8 8.2
2015-Aug-24 08:33N 37°59' E 012°21'6 6.1
2015-Aug-24 07:34N 38°00' E 012°13'1414.0
2015-Aug-24 06:34N 38°01' E 012°31'9 8.9
2015-Aug-24 05:34N 37°58' E 012°20'9 8.9
2015-Aug-24 04:33N 38°01' E 012°31'0 0.0
2015-Aug-23 19:21N 38°01' E 012°31'810.2
2015-Aug-23 18:33N 37°59' E 012°21'3 2.9
2015-Aug-23 17:34N 37°58' E 012°24'6 5.9
2015-Aug-23 16:33N 38°01' E 012°31'10 9.6
2015-Aug-23 15:34N 37°57' E 012°20'10 9.6
2015-Aug-23 14:34N 37°59' E 012°08'1818.3
2015-Aug-23 13:33N 38°01' E 012°31'0 0.1
2015-Aug-23 12:33N 38°01' E 012°31'0 0.0
2015-Aug-23 11:34N 38°01' E 012°31'8 8.2
2015-Aug-23 10:34N 37°59' E 012°21'8 8.2
2015-Aug-23 09:33N 38°01' E 012°31'8 8.2
2015-Aug-23 08:34N 37°59' E 012°21'5 4.8
2015-Aug-23 07:34N 37°59' E 012°14'1312.8
2015-Aug-23 06:33N 38°01' E 012°31'9 9.4
2015-Aug-23 05:34N 37°57' E 012°20'9 9.3
2015-Aug-23 04:34N 38°01' E 012°31'0 0.0
2015-Aug-22 19:21N 38°01' E 012°31'810.2
2015-Aug-22 18:33N 37°59' E 012°21'3 3.2
2015-Aug-22 17:33N 37°58' E 012°24'6 5.6
2015-Aug-22 16:34N 38°01' E 012°31'8 8.2
2015-Aug-22 15:33N 37°59' E 012°21'2 2.1
2015-Aug-22 14:34N 37°58' E 012°19'10 9.9
2015-Aug-22 13:34N 38°01' E 012°31'0 0.1
2015-Aug-22 12:34N 38°01' E 012°31'0 0.0
2015-Aug-22 11:33N 38°01' E 012°31'9 8.9
2015-Aug-22 10:34N 37°58' E 012°20'9 8.8
2015-Aug-22 09:33N 38°01' E 012°31'8 8.2
2015-Aug-22 08:34N 37°59' E 012°20'4 4.4
2015-Aug-22 07:34N 37°59' E 012°15'1312.6
2015-Aug-22 06:33N 38°01' E 012°31'8 8.2
2015-Aug-22 05:34N 37°59' E 012°21'8 8.1
2015-Aug-22 04:33N 38°01' E 012°31'0 0.0
2015-Aug-21 19:22N 38°01' E 012°31'810.2
2015-Aug-21 18:33N 37°59' E 012°20'3 2.8
2015-Aug-21 17:33N 37°58' E 012°24'6 6.4
2015-Aug-21 16:33N 38°01' E 012°31'8 8.2
2015-Aug-21 15:34N 37°59' E 012°21'6 5.6
2015-Aug-21 14:33N 37°58' E 012°14'1413.8
2015-Aug-21 13:34N 38°01' E 012°31'0 0.1
2015-Aug-21 12:33N 38°01' E 012°31'0 0.0
2015-Aug-21 11:33N 38°01' E 012°31'7 6.8
2015-Aug-21 10:33N 37°59' E 012°23'7 6.7
2015-Aug-21 09:33N 38°01' E 012°31'8 8.2
2015-Aug-21 08:34N 37°59' E 012°21'5 4.8
2015-Aug-21 07:32N 37°58' E 012°14'1313.3
2015-Aug-21 06:34N 38°01' E 012°31'8 8.4
2015-Aug-21 05:34N 37°58' E 012°20'8 8.4
2015-Aug-21 04:33N 38°01' E 012°31'0 0.0
2015-Aug-20 19:22N 38°01' E 012°31'911.2
2015-Aug-20 18:33N 37°58' E 012°20'4 4.4
2015-Aug-20 17:34N 37°58' E 012°25'5 4.6
2015-Aug-20 16:34N 38°01' E 012°30'8 8.0
2015-Aug-20 15:34N 37°59' E 012°21'4 4.1
2015-Aug-20 14:34N 37°58' E 012°16'1212.1
2015-Aug-20 13:33N 38°01' E 012°31'0 0.2
2015-Aug-20 12:33N 38°01' E 012°31'0 0.0
2015-Aug-20 11:33N 38°01' E 012°31'5 5.1
2015-Aug-20 10:33N 37°58' E 012°25'5 5.0
2015-Aug-20 09:33N 38°01' E 012°31'8 8.1
2015-Aug-20 08:34N 37°59' E 012°21'4 4.2
2015-Aug-20 07:33N 37°58' E 012°15'1212.5
2015-Aug-20 06:33N 38°01' E 012°31'8 8.1
2015-Aug-20 05:33N 37°59' E 012°21'8 8.1
2015-Aug-20 04:34N 38°01' E 012°31'0 0.0
2015-Aug-19 19:25N 38°01' E 012°31'8 9.8
2015-Aug-19 18:34N 37°59' E 012°20'4 4.1
2015-Aug-19 17:34N 37°58' E 012°26'4 4.4
2015-Aug-19 16:33N 38°01' E 012°30'10 9.9
2015-Aug-19 15:33N 37°56' E 012°19'8 7.9
2015-Aug-19 14:33N 37°58' E 012°10'  
Track history (hours):
 
Tides and Currents Weather Stations Pressure Air Temp Water Temp Dewpoint Dewpoint Depression Visibility Wind Speed Wind Dir Waves Ship Positions

Calypso

Last reported at 2015-Aug-29 14:33 UTC. Time now 2015-Aug-29 14:42 UTC.
Position N 37°58' E 012°09'.

Length 31 m; draft 4.2 m.

MMSI: 247143200.

Date/timePositionNaut miles runAvg speedWind from/ knotsBaromVisibWave heightAir tempDewpointWater temp
2015-Aug-29 14:33N 37°58' E 012°09'1717.4
2015-Aug-29 13:34N 38°01' E 012°31'0 0.1
2015-Aug-29 12:34N 38°01' E 012°31'0 0.0
2015-Aug-29 11:34N 38°01' E 012°31'8 8.1
2015-Aug-29 10:34N 37°59' E 012°21'8 8.0
2015-Aug-29 09:33N 38°01' E 012°31'8 8.2
2015-Aug-29 08:34N 37°59' E 012°21'5 4.6
2015-Aug-29 07:33N 37°59' E 012°15'1312.7
2015-Aug-29 06:33N 38°01' E 012°31'9 8.9
2015-Aug-29 05:34N 37°58' E 012°20'9 8.8
2015-Aug-29 04:33N 38°01' E 012°31'0 0.0
2015-Aug-28 19:20N 38°01' E 012°31'810.7
2015-Aug-28 18:33N 37°59' E 012°20'4 3.9
2015-Aug-28 17:33N 37°59' E 012°25'5 4.6
2015-Aug-28 16:34N 38°01' E 012°31'9 9.3
2015-Aug-28 15:33N 37°57' E 012°20'5 5.4
2015-Aug-28 14:34N 37°58' E 012°13'1414.4
2015-Aug-28 13:33N 38°01' E 012°31'0 0.1
2015-Aug-28 12:33N 38°01' E 012°31'0 0.0
2015-Aug-28 11:33N 38°01' E 012°31'5 4.7
2015-Aug-28 10:33N 37°59' E 012°26'5 4.6
2015-Aug-28 09:33N 38°01' E 012°31'8 8.4
2015-Aug-28 08:34N 37°59' E 012°20'4 4.3
2015-Aug-28 07:33N 37°58' E 012°15'1312.6
2015-Aug-28 06:33N 38°01' E 012°31'8 8.2
2015-Aug-28 05:34N 37°59' E 012°21'8 8.2
2015-Aug-28 04:33N 38°01' E 012°31'0 0.0
2015-Aug-27 19:21N 38°01' E 012°31'810.4
2015-Aug-27 18:33N 37°59' E 012°21'4 4.4
2015-Aug-27 17:34N 37°59' E 012°26'4 3.9
2015-Aug-27 16:33N 38°01' E 012°30'10 9.7
2015-Aug-27 15:34N 37°56' E 012°19'6 6.2
2015-Aug-27 14:33N 37°58' E 012°12'1515.3
2015-Aug-27 13:33N 38°01' E 012°31'0 0.0
2015-Aug-27 12:33N 38°01' E 012°31'0 0.0
2015-Aug-27 11:33N 38°01' E 012°31'4 4.3
2015-Aug-27 10:33N 37°59' E 012°26'4 4.2
2015-Aug-27 09:33N 38°01' E 012°31'8 8.2
2015-Aug-27 08:33N 37°59' E 012°21'5 5.0
2015-Aug-27 07:33N 37°59' E 012°14'1313.0
2015-Aug-27 06:34N 38°01' E 012°30'8 8.4
2015-Aug-27 05:34N 37°58' E 012°20'9 8.5
2015-Aug-27 04:33N 38°01' E 012°31'0 0.0
2015-Aug-26 19:21N 38°01' E 012°31'810.7
2015-Aug-26 18:33N 37°59' E 012°20'2 2.2
2015-Aug-26 17:34N 37°57' E 012°23'7 7.3
2015-Aug-26 16:33N 38°01' E 012°31'8 8.2
2015-Aug-26 15:33N 37°59' E 012°21'4 3.7
2015-Aug-26 14:33N 37°58' E 012°16'1211.8
2015-Aug-26 13:33N 38°01' E 012°31'0 0.0
2015-Aug-26 12:34N 38°01' E 012°31'0 0.0
2015-Aug-26 11:33N 38°01' E 012°31'8 7.6
2015-Aug-26 10:33N 37°59' E 012°21'8 7.6
2015-Aug-26 09:34N 38°01' E 012°31'8 8.3
2015-Aug-26 08:34N 37°59' E 012°20'5 5.1
2015-Aug-26 07:33N 37°59' E 012°14'1313.3
2015-Aug-26 06:33N 38°01' E 012°31'9 9.2
2015-Aug-26 05:33N 37°57' E 012°20'9 9.2
2015-Aug-26 04:33N 38°01' E 012°31'0 0.0
2015-Aug-25 19:21N 38°01' E 012°31'810.3
2015-Aug-25 18:33N 37°59' E 012°21'3 3.0
2015-Aug-25 17:34N 37°58' E 012°24'6 6.3
2015-Aug-25 16:34N 38°01' E 012°31'8 8.2
2015-Aug-25 15:33N 37°59' E 012°20'5 5.5
2015-Aug-25 14:33N 37°58' E 012°14'1413.7
2015-Aug-25 13:33N 38°01' E 012°31'0 0.0
2015-Aug-25 12:33N 38°01' E 012°31'0 0.0
2015-Aug-25 11:33N 38°01' E 012°31'5 5.3
2015-Aug-25 10:33N 37°58' E 012°25'5 5.3
2015-Aug-25 09:34N 38°01' E 012°31'8 8.2
2015-Aug-25 08:33N 37°59' E 012°21'6 5.9
2015-Aug-25 07:33N 37°59' E 012°13'1413.9
2015-Aug-25 06:34N 38°01' E 012°31'9 8.8
2015-Aug-25 05:33N 37°58' E 012°20'9 8.9
2015-Aug-25 04:33N 38°01' E 012°31'0 0.0
2015-Aug-24 19:21N 38°01' E 012°31'810.4
2015-Aug-24 18:33N 37°59' E 012°20'3 3.2
2015-Aug-24 17:33N 37°56' E 012°19'10 9.5
2015-Aug-24 16:33N 38°01' E 012°30'1514.9
2015-Aug-24 15:33N 38°00' E 012°11'8 7.7
2015-Aug-24 14:34N 37°56' E 012°20'1010.0
2015-Aug-24 13:33N 38°01' E 012°31'0 0.0
2015-Aug-24 12:33N 38°01' E 012°31'0 0.0
2015-Aug-24 11:33N 38°01' E 012°31'8 8.2
2015-Aug-24 10:33N 37°59' E 012°21'8 8.2
2015-Aug-24 09:33N 38°01' E 012°31'8 8.2
2015-Aug-24 08:33N 37°59' E 012°21'6 6.1
2015-Aug-24 07:34N 38°00' E 012°13'1414.0
2015-Aug-24 06:34N 38°01' E 012°31'9 8.9
2015-Aug-24 05:34N 37°58' E 012°20'9 8.9
2015-Aug-24 04:33N 38°01' E 012°31'0 0.0
2015-Aug-23 19:21N 38°01' E 012°31'810.2
2015-Aug-23 18:33N 37°59' E 012°21'3 2.9
2015-Aug-23 17:34N 37°58' E 012°24'6 5.9
2015-Aug-23 16:33N 38°01' E 012°31'10 9.6
2015-Aug-23 15:34N 37°57' E 012°20'10 9.6
2015-Aug-23 14:34N 37°59' E 012°08'1818.3
2015-Aug-23 13:33N 38°01' E 012°31'0 0.1
2015-Aug-23 12:33N 38°01' E 012°31'0 0.0
2015-Aug-23 11:34N 38°01' E 012°31'8 8.2
2015-Aug-23 10:34N 37°59' E 012°21'8 8.2
2015-Aug-23 09:33N 38°01' E 012°31'8 8.2
2015-Aug-23 08:34N 37°59' E 012°21'5 4.8
2015-Aug-23 07:34N 37°59' E 012°14'1312.8
2015-Aug-23 06:33N 38°01' E 012°31'9 9.4
2015-Aug-23 05:34N 37°57' E 012°20'9 9.3
2015-Aug-23 04:34N 38°01' E 012°31'0 0.0
2015-Aug-22 19:21N 38°01' E 012°31'810.2
2015-Aug-22 18:33N 37°59' E 012°21'3 3.2
2015-Aug-22 17:33N 37°58' E 012°24'6 5.6
2015-Aug-22 16:34N 38°01' E 012°31'8 8.2
2015-Aug-22 15:33N 37°59' E 012°21'2 2.1
2015-Aug-22 14:34N 37°58' E 012°19'10 9.9
2015-Aug-22 13:34N 38°01' E 012°31'0 0.1
2015-Aug-22 12:34N 38°01' E 012°31'0 0.0
2015-Aug-22 11:33N 38°01' E 012°31'9 8.9
2015-Aug-22 10:34N 37°58' E 012°20'9 8.8
2015-Aug-22 09:33N 38°01' E 012°31'8 8.2
2015-Aug-22 08:34N 37°59' E 012°20'4 4.4
2015-Aug-22 07:34N 37°59' E 012°15'1312.6
2015-Aug-22 06:33N 38°01' E 012°31'8 8.2
2015-Aug-22 05:34N 37°59' E 012°21'8 8.1
2015-Aug-22 04:33N 38°01' E 012°31'0 0.0
2015-Aug-21 19:22N 38°01' E 012°31'810.2
2015-Aug-21 18:33N 37°59' E 012°20'3 2.8
2015-Aug-21 17:33N 37°58' E 012°24'6 6.4
2015-Aug-21 16:33N 38°01' E 012°31'8 8.2
2015-Aug-21 15:34N 37°59' E 012°21'6 5.6
2015-Aug-21 14:33N 37°58' E 012°14'1413.8
2015-Aug-21 13:34N 38°01' E 012°31'0 0.1
2015-Aug-21 12:33N 38°01' E 012°31'0 0.0
2015-Aug-21 11:33N 38°01' E 012°31'7 6.8
2015-Aug-21 10:33N 37°59' E 012°23'7 6.7
2015-Aug-21 09:33N 38°01' E 012°31'8 8.2
2015-Aug-21 08:34N 37°59' E 012°21'5 4.8
2015-Aug-21 07:32N 37°58' E 012°14'1313.3
2015-Aug-21 06:34N 38°01' E 012°31'8 8.4
2015-Aug-21 05:34N 37°58' E 012°20'8 8.4
2015-Aug-21 04:33N 38°01' E 012°31'0 0.0
2015-Aug-20 19:22N 38°01' E 012°31'911.2
2015-Aug-20 18:33N 37°58' E 012°20'4 4.4
2015-Aug-20 17:34N 37°58' E 012°25'5 4.6
2015-Aug-20 16:34N 38°01' E 012°30'8 8.0
2015-Aug-20 15:34N 37°59' E 012°21'4 4.1
2015-Aug-20 14:34N 37°58' E 012°16'1212.1
2015-Aug-20 13:33N 38°01' E 012°31'0 0.2
2015-Aug-20 12:33N 38°01' E 012°31'0 0.0
2015-Aug-20 11:33N 38°01' E 012°31'5 5.1
2015-Aug-20 10:33N 37°58' E 012°25'5 5.0
2015-Aug-20 09:33N 38°01' E 012°31'8 8.1
2015-Aug-20 08:34N 37°59' E 012°21'4 4.2
2015-Aug-20 07:33N 37°58' E 012°15'1212.5
2015-Aug-20 06:33N 38°01' E 012°31'8 8.1
2015-Aug-20 05:33N 37°59' E 012°21'8 8.1
2015-Aug-20 04:34N 38°01' E 012°31'0 0.0
2015-Aug-19 19:25N 38°01' E 012°31'8 9.8
2015-Aug-19 18:34N 37°59' E 012°20'4 4.1
2015-Aug-19 17:34N 37°58' E 012°26'4 4.4
2015-Aug-19 16:33N 38°01' E 012°30'10 9.9
2015-Aug-19 15:33N 37°56' E 012°19'8 7.9
2015-Aug-19 14:33N 37°58' E 012°10'  

Dump ship's entire track history